Time;durP1;ratioP1;P1;durP2;ratioP2;P2;SDS_P1;SDS_P2;PMS_P1;PMS_P2;Temp;Humidity;BMP_temperature;BMP_pressure;BME280_temperature;BME280_humidity;BME280_pressure;Samples;Min_cycle;Max_cycle;Signal;HPM_P1;HPM_P2
2021/09/24 00:01:45;;;;;;;8.13;6.90;;;10.70;99.90;;;;;;4954265;28;20042;-72
2021/09/24 00:04:12;;;;;;;7.22;6.35;;;10.70;99.90;;;;;;4954387;28;20035;-73
2021/09/24 00:06:42;;;;;;;6.90;6.20;;;10.70;99.90;;;;;;4953332;28;20152;-73
2021/09/24 00:09:08;;;;;;;9.52;7.00;;;10.60;99.90;;;;;;4954125;28;20646;-73
2021/09/24 00:11:35;;;;;;;8.25;6.57;;;10.50;99.90;;;;;;4953982;28;20571;-72
2021/09/24 00:14:01;;;;;;;9.38;6.70;;;10.50;99.90;;;;;;4953889;28;20051;-72
2021/09/24 00:16:27;;;;;;;10.90;6.85;;;10.50;99.90;;;;;;4953141;28;20027;-72
2021/09/24 00:18:52;;;;;;;8.18;6.93;;;10.40;99.90;;;;;;4953765;28;20027;-70
2021/09/24 00:21:18;;;;;;;8.52;6.95;;;10.50;99.90;;;;;;4953517;28;20031;-70
2021/09/24 00:23:44;;;;;;;7.80;6.55;;;10.50;99.90;;;;;;4952654;28;20532;-72
2021/09/24 00:26:09;;;;;;;9.25;7.47;;;10.40;99.90;;;;;;4952148;28;20031;-72
2021/09/24 00:28:35;;;;;;;8.95;6.72;;;10.40;99.90;;;;;;4953356;28;20126;-72
2021/09/24 00:31:01;;;;;;;9.48;6.90;;;10.30;99.90;;;;;;4953554;28;20023;-72
2021/09/24 00:33:27;;;;;;;10.75;7.40;;;10.30;99.90;;;;;;4953715;28;20031;-69
2021/09/24 00:35:56;;;;;;;9.98;7.75;;;10.30;99.90;;;;;;4952775;28;20434;-73
2021/09/24 00:38:23;;;;;;;9.18;7.63;;;10.20;99.90;;;;;;4953040;28;20024;-72
2021/09/24 00:40:49;;;;;;;9.52;7.40;;;10.20;99.90;;;;;;4953460;28;20469;-71
2021/09/24 00:43:15;;;;;;;10.93;7.20;;;10.20;99.90;;;;;;4953546;28;20031;-72
2021/09/24 00:45:41;;;;;;;8.35;6.95;;;10.10;99.90;;;;;;4952859;28;20023;-72
2021/09/24 00:48:07;;;;;;;9.90;7.25;;;10.10;99.90;;;;;;4953618;28;20026;-72
2021/09/24 00:50:33;;;;;;;9.60;7.60;;;10.10;99.90;;;;;;4953391;28;20119;-73
2021/09/24 00:52:59;;;;;;;9.85;7.15;;;10.00;99.90;;;;;;4953165;28;20668;-73
2021/09/24 00:55:26;;;;;;;8.75;7.68;;;10.10;99.90;;;;;;4952690;28;20040;-71
2021/09/24 00:57:52;;;;;;;8.23;6.93;;;10.00;99.90;;;;;;4953456;28;20030;-71
2021/09/24 01:00:19;;;;;;;9.35;7.30;;;10.00;99.90;;;;;;4953413;28;20027;-72
2021/09/24 01:02:45;;;;;;;10.55;7.32;;;10.10;99.90;;;;;;4953269;28;20034;-73
2021/09/24 01:05:12;;;;;;;10.50;7.80;;;10.00;99.90;;;;;;4952735;28;20023;-71
2021/09/24 01:07:43;;;;;;;8.20;7.18;;;10.00;99.90;;;;;;4952934;28;20090;-72
2021/09/24 01:10:11;;;;;;;11.35;7.55;;;10.00;99.90;;;;;;4951863;28;20110;-72
2021/09/24 01:12:37;;;;;;;9.82;7.55;;;10.00;99.90;;;;;;4953182;28;20045;-72
2021/09/24 01:15:06;;;;;;;10.40;7.75;;;10.00;99.90;;;;;;4952728;28;20106;-73
2021/09/24 01:17:32;;;;;;;11.02;8.13;;;10.00;99.90;;;;;;4953427;28;20033;-71
2021/09/24 01:19:59;;;;;;;9.02;7.60;;;10.00;99.90;;;;;;4953020;28;20027;-72
2021/09/24 01:22:25;;;;;;;9.68;8.23;;;10.00;99.90;;;;;;4952990;28;20059;-74
2021/09/24 01:24:50;;;;;;;10.27;8.10;;;10.00;99.90;;;;;;4955004;28;20401;-72
2021/09/24 01:27:17;;;;;;;17.02;8.55;;;9.90;99.90;;;;;;4956678;28;20042;-73
2021/09/24 01:29:43;;;;;;;11.65;8.32;;;9.90;99.90;;;;;;4953731;28;20035;-72
2021/09/24 01:32:08;;;;;;;9.93;8.32;;;9.90;99.90;;;;;;4953135;28;20038;-73
2021/09/24 01:34:34;;;;;;;10.68;7.93;;;9.90;99.90;;;;;;4952694;28;20957;-72
2021/09/24 01:37:00;;;;;;;9.88;8.05;;;9.90;99.90;;;;;;4953879;28;20504;-73
2021/09/24 01:39:26;;;;;;;10.15;7.72;;;9.80;99.90;;;;;;4956536;28;20031;-73
2021/09/24 01:41:51;;;;;;;11.52;8.77;;;9.80;99.90;;;;;;4956832;28;20035;-74
2021/09/24 01:44:18;;;;;;;10.95;8.60;;;9.70;99.90;;;;;;4956166;28;20030;-72
2021/09/24 01:46:45;;;;;;;17.75;8.48;;;9.70;99.90;;;;;;4955210;28;20486;-73
2021/09/24 01:49:11;;;;;;;12.27;8.27;;;9.70;99.90;;;;;;4956422;28;20497;-73
2021/09/24 01:51:41;;;;;;;12.38;9.10;;;9.70;99.90;;;;;;4956358;28;20377;-73
2021/09/24 01:54:08;;;;;;;10.00;7.85;;;9.70;99.90;;;;;;4956398;29;20058;-72
2021/09/24 01:56:34;;;;;;;12.13;8.70;;;9.60;99.90;;;;;;4955802;28;20027;-72
2021/09/24 01:58:59;;;;;;;10.95;8.55;;;9.60;99.90;;;;;;4956309;28;20055;-72
2021/09/24 02:01:25;;;;;;;12.30;8.27;;;9.70;99.90;;;;;;4956407;28;20024;-72
2021/09/24 02:03:51;;;;;;;10.68;8.73;;;9.60;99.90;;;;;;4956017;28;20039;-72
2021/09/24 02:06:16;;;;;;;12.10;8.90;;;9.60;99.90;;;;;;4955464;28;20398;-72
2021/09/24 02:08:42;;;;;;;11.85;8.57;;;9.50;99.90;;;;;;4955916;28;20484;-72
2021/09/24 02:11:10;;;;;;;12.20;9.18;;;9.50;99.90;;;;;;4955966;28;20042;-71
2021/09/24 02:13:40;;;;;;;13.02;9.70;;;9.50;99.90;;;;;;4956269;28;20023;-73
2021/09/24 02:16:07;;;;;;;12.30;8.73;;;9.50;99.90;;;;;;4955542;28;20498;-72
2021/09/24 02:18:33;;;;;;;13.43;8.18;;;9.50;99.90;;;;;;4956164;28;20027;-71
2021/09/24 02:20:59;;;;;;;11.32;8.93;;;9.40;99.90;;;;;;4968863;28;20023;-70
2021/09/24 02:23:25;;;;;;;11.52;9.57;;;9.30;99.90;;;;;;4963069;28;20023;-71
2021/09/24 02:25:50;;;;;;;10.70;8.60;;;9.30;99.90;;;;;;4955498;28;20054;-72
2021/09/24 02:28:16;;;;;;;12.05;8.70;;;9.40;99.90;;;;;;4975023;28;20537;-71
2021/09/24 02:30:42;;;;;;;13.23;9.50;;;9.40;99.90;;;;;;4975057;28;20042;-73
2021/09/24 02:33:07;;;;;;;15.02;9.18;;;9.40;99.90;;;;;;4973801;28;20027;-71
2021/09/24 02:35:33;;;;;;;11.52;8.75;;;9.40;99.90;;;;;;4974497;28;20656;-72
2021/09/24 02:37:59;;;;;;;12.88;8.73;;;9.40;99.90;;;;;;4974769;28;20138;-71
2021/09/24 02:40:24;;;;;;;15.57;9.55;;;9.40;99.90;;;;;;4974902;28;20027;-73
2021/09/24 02:42:50;;;;;;;13.05;9.90;;;9.40;99.90;;;;;;4975384;28;20045;-72
2021/09/24 02:45:16;;;;;;;12.85;9.73;;;9.40;99.90;;;;;;4972663;28;20035;-72
2021/09/24 02:47:42;;;;;;;13.93;9.35;;;9.40;99.90;;;;;;4974085;28;20114;-71
2021/09/24 02:50:08;;;;;;;12.88;9.48;;;9.30;99.90;;;;;;4973714;28;20050;-71
2021/09/24 02:52:35;;;;;;;13.70;9.63;;;9.30;99.90;;;;;;4972137;28;20030;-72
2021/09/24 02:55:01;;;;;;;10.77;8.27;;;9.30;99.90;;;;;;4973716;28;20026;-72
2021/09/24 02:57:27;;;;;;;11.98;9.27;;;9.30;99.90;;;;;;4961540;28;20038;-71
2021/09/24 02:59:52;;;;;;;10.90;8.43;;;9.20;99.90;;;;;;4955216;28;20390;-71
2021/09/24 03:02:18;;;;;;;11.70;9.15;;;9.20;99.90;;;;;;4955040;28;20115;-71
2021/09/24 03:04:44;;;;;;;12.02;10.02;;;9.30;99.90;;;;;;4954530;28;20027;-71
2021/09/24 03:07:10;;;;;;;12.45;8.63;;;9.20;99.90;;;;;;4954896;28;20548;-71
2021/09/24 03:09:36;;;;;;;13.18;9.50;;;9.20;99.90;;;;;;4954970;28;20050;-71
2021/09/24 03:12:03;;;;;;;12.38;9.25;;;9.20;99.90;;;;;;4954939;28;20027;-71
2021/09/24 03:14:28;;;;;;;14.38;9.48;;;9.20;99.90;;;;;;4954265;28;20161;-71
2021/09/24 03:16:54;;;;;;;13.85;9.60;;;9.20;99.90;;;;;;4954824;28;20549;-71
2021/09/24 03:19:20;;;;;;;12.63;8.70;;;9.20;99.90;;;;;;4954753;28;20359;-70
2021/09/24 03:21:48;;;;;;;16.20;9.18;;;9.10;99.90;;;;;;4954648;28;20035;-70
2021/09/24 03:24:14;;;;;;;13.73;8.98;;;9.10;99.90;;;;;;4954720;28;20030;-70
2021/09/24 03:26:40;;;;;;;17.27;9.45;;;9.00;99.90;;;;;;4954468;28;20033;-73
2021/09/24 03:29:08;;;;;;;15.85;8.98;;;9.10;99.90;;;;;;4954470;28;20110;-72
2021/09/24 03:31:35;;;;;;;16.58;9.20;;;9.00;99.90;;;;;;4954404;28;20027;-72
2021/09/24 03:34:01;;;;;;;13.35;10.23;;;9.10;99.90;;;;;;4954669;28;20026;-73
2021/09/24 03:36:26;;;;;;;16.98;9.73;;;9.10;99.90;;;;;;4953666;28;20031;-72
2021/09/24 03:38:52;;;;;;;15.23;9.60;;;9.00;99.90;;;;;;4954270;28;20045;-72
2021/09/24 03:41:18;;;;;;;13.80;9.93;;;9.00;99.90;;;;;;4954524;28;20027;-72
2021/09/24 03:43:43;;;;;;;15.18;9.95;;;9.00;99.90;;;;;;4954427;28;20040;-72
2021/09/24 03:46:09;;;;;;;15.02;10.55;;;8.90;99.90;;;;;;4953481;28;20426;-72
2021/09/24 03:48:34;;;;;;;13.73;10.50;;;8.90;99.90;;;;;;4954236;28;20062;-73
2021/09/24 03:51:00;;;;;;;12.95;9.75;;;8.90;99.90;;;;;;4954248;28;20063;-70
2021/09/24 03:53:26;;;;;;;15.13;9.95;;;8.90;99.90;;;;;;4954023;28;20026;-71
2021/09/24 03:55:52;;;;;;;14.38;9.75;;;8.80;99.90;;;;;;4953403;28;20019;-70
2021/09/24 03:58:20;;;;;;;15.18;9.23;;;8.80;99.90;;;;;;4954019;28;20562;-71
2021/09/24 04:00:45;;;;;;;11.15;9.13;;;8.80;99.90;;;;;;4954114;28;20047;-70
2021/09/24 04:03:11;;;;;;;15.05;10.15;;;8.70;99.90;;;;;;4954225;28;20031;-72
2021/09/24 04:05:36;;;;;;;14.30;10.30;;;8.70;99.90;;;;;;4953389;28;20089;-72
2021/09/24 04:08:02;;;;;;;14.55;9.70;;;8.70;99.90;;;;;;4953822;28;20034;-71
2021/09/24 04:10:28;;;;;;;15.10;9.98;;;8.60;99.90;;;;;;4954056;28;20035;-71
2021/09/24 04:12:54;;;;;;;15.82;9.55;;;8.60;99.90;;;;;;4954122;28;20114;-71
2021/09/24 04:15:19;;;;;;;14.23;9.70;;;8.60;99.90;;;;;;4953314;28;20086;-74
2021/09/24 04:17:45;;;;;;;14.07;9.80;;;8.50;99.90;;;;;;4954042;28;20035;-71
2021/09/24 04:20:11;;;;;;;15.00;9.70;;;8.50;99.90;;;;;;4954210;28;20023;-72
2021/09/24 04:22:37;;;;;;;15.13;9.45;;;8.50;99.90;;;;;;4953631;28;20031;-72
2021/09/24 04:25:04;;;;;;;15.57;9.10;;;8.40;99.90;;;;;;4953219;28;20057;-72
2021/09/24 04:27:30;;;;;;;14.65;9.50;;;8.50;99.90;;;;;;4953597;28;20513;-72
2021/09/24 04:29:56;;;;;;;11.75;9.13;;;8.50;99.90;;;;;;4953479;28;20437;-72
2021/09/24 04:32:22;;;;;;;15.63;10.13;;;8.40;99.90;;;;;;4953876;28;20030;-74
2021/09/24 04:34:47;;;;;;;12.30;9.68;;;8.40;99.90;;;;;;4953019;28;20078;-72
2021/09/24 04:37:13;;;;;;;13.82;9.90;;;8.50;99.90;;;;;;4952981;28;20027;-72
2021/09/24 04:39:39;;;;;;;12.27;9.57;;;8.40;99.90;;;;;;4953606;28;20037;-72
2021/09/24 04:42:05;;;;;;;15.48;10.55;;;8.50;99.90;;;;;;4953442;28;20030;-72
2021/09/24 04:44:30;;;;;;;13.75;9.82;;;8.40;99.90;;;;;;4953029;28;20569;-73
2021/09/24 04:46:56;;;;;;;14.90;10.68;;;8.40;99.90;;;;;;4951985;28;20024;-72
2021/09/24 04:49:22;;;;;;;16.63;11.13;;;8.40;99.90;;;;;;4953287;28;20102;-73
2021/09/24 04:51:48;;;;;;;16.35;10.70;;;8.40;99.90;;;;;;4952876;28;20374;-72
2021/09/24 04:54:14;;;;;;;16.25;11.00;;;8.30;99.90;;;;;;4953231;28;20028;-72
2021/09/24 04:56:39;;;;;;;15.00;11.13;;;8.40;99.90;;;;;;4951927;28;20122;-71
2021/09/24 04:59:05;;;;;;;18.35;11.70;;;8.30;99.90;;;;;;4951741;28;20035;-72
2021/09/24 05:01:31;;;;;;;16.40;10.73;;;8.30;99.90;;;;;;4953289;28;20055;-71
2021/09/24 05:03:56;;;;;;;15.43;10.57;;;8.30;99.90;;;;;;4953161;28;20118;-73
2021/09/24 05:06:22;;;;;;;14.43;10.15;;;8.20;99.90;;;;;;4952931;28;20027;-73
2021/09/24 05:08:48;;;;;;;15.43;11.15;;;8.20;99.90;;;;;;4953141;28;20027;-72
2021/09/24 05:11:13;;;;;;;20.30;10.73;;;8.20;99.90;;;;;;4951849;28;20066;-72
2021/09/24 05:13:39;;;;;;;16.83;10.70;;;8.20;99.90;;;;;;4957351;28;20035;-73
2021/09/24 05:16:05;;;;;;;14.80;10.82;;;8.20;99.90;;;;;;4955129;28;20382;-71
2021/09/24 05:18:31;;;;;;;22.88;12.50;;;8.10;99.90;;;;;;4956787;28;20385;-72
2021/09/24 05:20:56;;;;;;;19.35;12.00;;;8.20;99.90;;;;;;4956664;28;20031;-72
2021/09/24 05:23:22;;;;;;;18.25;11.18;;;8.20;99.90;;;;;;4956627;28;20027;-70
2021/09/24 05:25:48;;;;;;;17.33;12.25;;;8.20;99.90;;;;;;4955922;28;20031;-71
2021/09/24 05:28:13;;;;;;;15.07;11.13;;;8.30;99.90;;;;;;4956217;28;20067;-71
2021/09/24 05:30:39;;;;;;;16.60;11.93;;;8.20;99.90;;;;;;4956321;28;20031;-71
2021/09/24 05:33:05;;;;;;;15.45;10.90;;;8.20;99.90;;;;;;4956792;29;20485;-72
2021/09/24 05:35:31;;;;;;;16.65;10.98;;;8.30;99.90;;;;;;4954858;28;20027;-72
2021/09/24 05:37:56;;;;;;;17.60;11.85;;;8.30;99.90;;;;;;4956364;28;20031;-72
2021/09/24 05:40:23;;;;;;;16.77;11.20;;;8.30;99.90;;;;;;4956631;28;20035;-71
2021/09/24 05:42:50;;;;;;;20.10;11.27;;;8.30;99.90;;;;;;4956789;28;20697;-72
2021/09/24 05:45:16;;;;;;;15.93;10.82;;;8.40;99.90;;;;;;4954725;28;20024;-72
2021/09/24 05:47:43;;;;;;;17.63;10.50;;;8.30;99.90;;;;;;4989659;28;20030;-73
2021/09/24 05:50:12;;;;;;;13.32;10.13;;;8.30;99.90;;;;;;4956232;28;20023;-72
2021/09/24 05:52:40;;;;;;;19.38;11.73;;;8.40;99.90;;;;;;4956070;28;20062;-72
2021/09/24 05:55:07;;;;;;;18.58;11.55;;;8.40;99.90;;;;;;4955789;28;20028;-73
2021/09/24 05:57:32;;;;;;;16.83;11.25;;;8.50;99.90;;;;;;4955708;28;20019;-72
2021/09/24 05:59:58;;;;;;;31.50;12.13;;;8.40;99.90;;;;;;4955953;28;20031;-73
2021/09/24 06:02:24;;;;;;;22.92;12.25;;;8.50;99.90;;;;;;4956171;28;20031;-73
2021/09/24 06:04:49;;;;;;;18.08;12.07;;;8.50;99.90;;;;;;4955231;28;20561;-73
2021/09/24 06:07:15;;;;;;;16.40;11.70;;;8.50;99.90;;;;;;4955788;28;20055;-73
2021/09/24 06:09:40;;;;;;;16.05;11.45;;;8.60;99.90;;;;;;4955822;28;20028;-71
2021/09/24 06:12:06;;;;;;;18.92;12.43;;;8.60;99.90;;;;;;4956158;28;20035;-73
2021/09/24 06:14:32;;;;;;;13.18;10.63;;;8.70;99.90;;;;;;4955532;28;20027;-71
2021/09/24 06:16:58;;;;;;;15.88;10.35;;;8.70;99.90;;;;;;4954874;28;20023;-71
2021/09/24 06:19:23;;;;;;;17.23;10.88;;;8.70;99.90;;;;;;4955876;28;20039;-74
2021/09/24 06:21:49;;;;;;;18.23;10.50;;;8.80;99.90;;;;;;4955830;28;20063;-71
2021/09/24 06:24:16;;;;;;;19.90;11.27;;;8.90;99.90;;;;;;4954191;28;20030;-74
2021/09/24 06:26:41;;;;;;;17.08;11.02;;;8.90;99.90;;;;;;4955453;28;20033;-72
2021/09/24 06:29:07;;;;;;;18.20;10.48;;;9.00;99.90;;;;;;4956112;28;20035;-73
2021/09/24 06:31:33;;;;;;;15.27;10.60;;;9.00;99.90;;;;;;4955764;28;20482;-74
2021/09/24 06:33:58;;;;;;;15.90;11.38;;;9.00;99.90;;;;;;4948343;28;20033;-79
2021/09/24 06:36:25;;;;;;;16.60;11.00;;;9.10;99.90;;;;;;4953440;28;20046;-79
2021/09/24 06:38:50;;;;;;;16.83;10.20;;;9.10;99.90;;;;;;4954818;28;20023;-79
2021/09/24 06:41:16;;;;;;;19.50;11.10;;;9.10;99.90;;;;;;4955865;28;20802;-79
2021/09/24 06:43:42;;;;;;;14.90;11.63;;;9.30;99.90;;;;;;4946028;28;20023;-79
2021/09/24 06:46:08;;;;;;;14.30;10.90;;;9.40;99.90;;;;;;4935894;29;20107;-78
2021/09/24 06:48:35;;;;;;;16.95;12.05;;;9.50;99.90;;;;;;4935885;29;20102;-77
2021/09/24 06:51:02;;;;;;;15.27;11.32;;;9.60;99.90;;;;;;4947304;28;20047;-78
2021/09/24 06:53:28;;;;;;;14.43;10.88;;;9.70;99.90;;;;;;4954282;28;20024;-77
2021/09/24 06:55:57;;;;;;;15.05;11.10;;;9.50;99.90;;;;;;4955181;28;20015;-77
2021/09/24 06:58:23;;;;;;;17.80;11.63;;;9.80;99.90;;;;;;4954922;28;20096;-77
2021/09/24 07:00:49;;;;;;;17.80;11.05;;;10.00;99.90;;;;;;4955411;28;20038;-78
2021/09/24 07:03:14;;;;;;;15.90;11.60;;;10.20;99.90;;;;;;4955138;28;20058;-78
2021/09/24 07:05:40;;;;;;;16.38;11.23;;;10.30;99.90;;;;;;4954934;28;20042;-78
2021/09/24 07:08:06;;;;;;;14.82;11.23;;;10.40;99.90;;;;;;4954704;28;20027;-79
2021/09/24 07:10:32;;;;;;;16.70;11.90;;;10.50;99.90;;;;;;4955212;28;20042;-78
2021/09/24 07:12:57;;;;;;;15.85;10.60;;;10.50;99.90;;;;;;4954928;28;20039;-77
2021/09/24 07:15:23;;;;;;;15.90;10.63;;;10.50;99.90;;;;;;4954293;28;20024;-77
2021/09/24 07:17:49;;;;;;;13.38;10.48;;;10.80;99.90;;;;;;4954313;28;20031;-77
2021/09/24 07:20:15;;;;;;;9.82;8.65;;;10.90;99.90;;;;;;4961865;28;20189;-78
2021/09/24 07:22:41;;;;;;;11.98;8.70;;;11.10;99.90;;;;;;4960149;28;20043;-77
2021/09/24 07:25:07;;;;;;;11.30;9.25;;;11.20;99.90;;;;;;4958750;28;20568;-80
2021/09/24 07:27:33;;;;;;;10.07;8.63;;;11.40;99.90;;;;;;4956522;28;20038;-78
2021/09/24 07:29:59;;;;;;;12.00;8.65;;;11.50;99.90;;;;;;4955739;28;20039;-79
2021/09/24 07:32:25;;;;;;;9.43;7.88;;;11.70;99.90;;;;;;4955100;28;20055;-80
2021/09/24 07:34:51;;;;;;;10.63;8.13;;;11.90;99.90;;;;;;4955046;28;20055;-80
2021/09/24 07:37:17;;;;;;;10.35;8.63;;;12.00;99.90;;;;;;4955136;28;20034;-79
2021/09/24 07:39:42;;;;;;;11.13;7.60;;;12.10;99.90;;;;;;4955085;28;20035;-77
2021/09/24 07:42:08;;;;;;;9.38;7.32;;;12.30;99.90;;;;;;4954627;28;20090;-80
2021/09/24 07:44:35;;;;;;;9.02;7.22;;;12.50;99.90;;;;;;4953628;28;20055;-79
2021/09/24 07:47:01;;;;;;;8.93;7.25;;;12.70;99.90;;;;;;4955064;28;20027;-78
2021/09/24 07:49:26;;;;;;;10.48;7.30;;;12.80;99.90;;;;;;4955118;28;20028;-79
2021/09/24 07:51:53;;;;;;;12.48;8.50;;;13.00;99.90;;;;;;4953936;28;20085;-80
2021/09/24 07:54:24;;;;;;;9.77;7.53;;;13.10;99.90;;;;;;4954770;28;20125;-79
2021/09/24 07:56:50;;;;;;;9.25;7.95;;;13.20;99.90;;;;;;4953815;28;20038;-79
2021/09/24 07:59:16;;;;;;;9.35;8.27;;;13.30;99.90;;;;;;4954954;28;20046;-80
2021/09/24 08:01:42;;;;;;;8.02;7.22;;;13.50;99.90;;;;;;4953168;28;20482;-79
2021/09/24 08:04:08;;;;;;;7.63;6.88;;;13.70;99.90;;;;;;4954830;28;20020;-80
2021/09/24 08:06:34;;;;;;;8.95;6.90;;;13.90;99.90;;;;;;4953545;28;20027;-78
2021/09/24 08:08:59;;;;;;;7.80;6.68;;;14.10;99.90;;;;;;4953966;28;20114;-78
2021/09/24 08:11:25;;;;;;;8.57;7.03;;;14.20;99.90;;;;;;4953569;28;20023;-78
2021/09/24 08:13:52;;;;;;;11.38;7.07;;;14.40;99.90;;;;;;4953945;28;20054;-78
2021/09/24 08:16:18;;;;;;;6.93;6.22;;;14.70;99.90;;;;;;4953287;28;20031;-78
2021/09/24 08:18:43;;;;;;;6.20;5.60;;;15.20;99.90;;;;;;4953908;28;20030;-78
2021/09/24 08:21:09;;;;;;;6.38;5.68;;;15.70;99.90;;;;;;4953957;28;20062;-79
2021/09/24 08:23:35;;;;;;;6.25;5.60;;;16.20;99.90;;;;;;4953492;28;20111;-77
2021/09/24 08:26:00;;;;;;;8.18;5.25;;;16.70;99.90;;;;;;4953144;28;20132;-78
2021/09/24 08:28:26;;;;;;;7.50;5.22;;;17.40;99.90;;;;;;4953467;28;20020;-78
2021/09/24 08:30:52;;;;;;;5.85;4.45;;;17.90;99.90;;;;;;4953540;28;20023;-78
2021/09/24 08:33:17;;;;;;;6.40;4.22;;;19.00;99.90;;;;;;4953335;28;20027;-79
2021/09/24 08:35:44;;;;;;;6.35;5.75;;;19.40;99.90;;;;;;4952870;28;20088;-78
2021/09/24 08:38:10;;;;;;;7.25;5.18;;;19.50;99.90;;;;;;4953405;28;20037;-78
2021/09/24 08:40:37;;;;;;;6.05;5.45;;;19.50;99.90;;;;;;4953577;28;20026;-78
2021/09/24 08:43:03;;;;;;;4.85;4.35;;;19.80;99.90;;;;;;4953527;28;20054;-78
2021/09/24 08:45:30;;;;;;;5.80;5.13;;;19.70;99.90;;;;;;4972739;22;20054;-77
2021/09/24 08:47:59;;;;;;;5.32;4.85;;;20.40;99.90;;;;;;4972448;28;20519;-77
2021/09/24 08:50:26;;;;;;;7.20;5.25;;;20.90;99.90;;;;;;4972296;28;20031;-74
2021/09/24 08:52:53;;;;;;;8.00;4.70;;;20.70;99.90;;;;;;4972750;28;20436;-74
2021/09/24 08:55:19;;;;;;;5.65;5.25;;;20.90;99.90;;;;;;4971645;28;20162;-76
2021/09/24 08:57:46;;;;;;;5.63;5.22;;;20.00;99.90;;;;;;4969516;28;20019;-76
2021/09/24 09:00:13;;;;;;;6.47;4.75;;;20.20;99.90;;;;;;4962983;28;20030;-74
2021/09/24 09:03:08;;;;;;;6.03;4.90;;;20.30;99.90;;;;;;4972274;28;20037;-74
2021/09/24 09:05:45;;;;;;;8.63;4.95;;;20.50;99.90;;;;;;4970184;28;20039;-75
2021/09/24 09:08:13;;;;;;;7.90;5.45;;;21.80;99.90;;;;;;4955985;28;20031;-74
2021/09/24 09:10:49;;;;;;;5.90;5.38;;;21.50;99.90;;;;;;4953302;28;20023;-75
2021/09/24 09:13:17;;;;;;;4.88;4.47;;;20.60;99.90;;;;;;4951851;28;20676;-76
2021/09/24 09:16:05;;;;;;;6.18;4.80;;;21.50;99.90;;;;;;4956645;28;20027;-76
2021/09/24 09:18:38;;;;;;;6.72;5.25;;;22.40;99.90;;;;;;4972460;28;20509;-75
2021/09/24 09:21:07;;;;;;;6.43;4.50;;;22.20;99.90;;;;;;4972547;28;20118;-75
2021/09/24 09:23:36;;;;;;;5.30;4.70;;;23.50;99.90;;;;;;4972371;28;20077;-75
2021/09/24 09:26:05;;;;;;;5.13;4.72;;;23.60;99.90;;;;;;4986703;28;20031;-75
2021/09/24 09:28:57;;;;;;;5.72;4.60;;;23.30;99.90;;;;;;4972406;28;20067;-74
2021/09/24 09:31:32;;;;;;;6.68;4.13;;;23.60;99.90;;;;;;4972022;28;20073;-75
2021/09/24 09:34:03;;;;;;;4.85;4.45;;;23.40;99.90;;;;;;4972121;28;20101;-76
2021/09/24 09:36:32;;;;;;;7.55;4.30;;;22.90;99.90;;;;;;4971742;28;20416;-76
2021/09/24 09:38:59;;;;;;;5.65;4.20;;;23.60;99.90;;;;;;4972201;28;20489;-77
2021/09/24 09:41:26;;;;;;;4.25;3.95;;;23.50;99.90;;;;;;4972417;28;20027;-76
2021/09/24 09:43:57;;;;;;;3.38;3.10;;;22.60;99.90;;;;;;4972200;28;20029;-77
2021/09/24 09:46:30;;;;;;;4.03;3.50;;;22.80;99.90;;;;;;4985952;28;20034;-76
2021/09/24 09:49:06;;;;;;;4.65;3.67;;;23.90;99.90;;;;;;4970577;28;20074;-75
2021/09/24 09:51:33;;;;;;;5.10;4.28;;;24.80;98.80;;;;;;4971730;28;20553;-76
2021/09/24 09:53:59;;;;;;;4.30;3.97;;;25.00;98.60;;;;;;4972586;28;20030;-75
2021/09/24 09:56:46;;;;;;;4.57;3.50;;;25.30;98.20;;;;;;4971161;28;20030;-75
2021/09/24 09:59:29;;;;;;;4.22;3.92;;;27.40;95.70;;;;;;4974598;28;20362;-77
2021/09/24 10:02:19;;;;;;;10.02;3.65;;;25.00;95.30;;;;;;4973846;28;20035;-75
2021/09/24 10:04:51;;;;;;;4.47;4.18;;;25.40;96.90;;;;;;4974482;28;20050;-75
2021/09/24 10:07:22;;;;;;;4.05;3.65;;;26.70;95.40;;;;;;4974963;28;20030;-75
2021/09/24 10:10:00;;;;;;;6.82;3.65;;;26.20;93.80;;;;;;4975410;28;20101;-77
2021/09/24 10:12:26;;;;;;;3.67;3.35;;;26.40;93.80;;;;;;4974435;28;20113;-76
2021/09/24 10:14:54;;;;;;;4.40;3.55;;;24.50;95.10;;;;;;4973658;28;20928;-74
2021/09/24 10:17:22;;;;;;;4.45;4.10;;;22.90;97.70;;;;;;4974980;28;20031;-74
2021/09/24 10:19:50;;;;;;;4.18;3.55;;;24.30;98.40;;;;;;4974511;28;20111;-76
2021/09/24 10:22:16;;;;;;;3.40;3.20;;;26.10;94.90;;;;;;4975093;28;20031;-73
2021/09/24 10:24:42;;;;;;;8.30;3.75;;;26.30;92.60;;;;;;4974181;28;20082;-76
2021/09/24 10:27:38;;;;;;;3.72;3.42;;;25.90;94.40;;;;;;4969345;28;20031;-77
2021/09/24 10:30:18;;;;;;;4.40;3.40;;;26.10;92.20;;;;;;4963855;28;20058;-75
2021/09/24 10:32:56;;;;;;;3.53;3.22;;;25.90;92.80;;;;;;4965352;28;20025;-74
2021/09/24 10:35:22;;;;;;;4.60;3.25;;;26.40;93.20;;;;;;4965037;28;20117;-76
2021/09/24 10:37:48;;;;;;;3.10;2.90;;;26.90;92.00;;;;;;4961215;28;20058;-75
2021/09/24 10:40:21;;;;;;;4.45;3.08;;;29.30;89.90;;;;;;4975785;28;20410;-78
2021/09/24 10:42:48;;;;;;;3.28;3.05;;;28.60;89.30;;;;;;4975174;28;20484;-75
2021/09/24 10:45:21;;;;;;;5.20;3.33;;;27.70;89.00;;;;;;4953513;28;20433;-74
2021/09/24 10:48:07;;;;;;;5.15;2.90;;;29.80;86.40;;;;;;4974306;28;20035;-75
2021/09/24 10:50:33;;;;;;;5.30;3.08;;;31.10;80.90;;;;;;4974993;28;20033;-76
2021/09/24 10:53:26;;;;;;;3.10;2.90;;;29.40;86.90;;;;;;4974418;28;20210;-77
2021/09/24 10:55:52;;;;;;;3.08;2.88;;;29.90;84.30;;;;;;4973602;28;20027;-76
2021/09/24 10:58:26;;;;;;;3.33;3.03;;;29.50;82.60;;;;;;4973858;28;20029;-74
2021/09/24 11:00:55;;;;;;;2.55;2.35;;;30.40;82.20;;;;;;4973551;28;20540;-75
2021/09/24 11:03:23;;;;;;;5.38;3.28;;;31.20;77.50;;;;;;4974450;28;20110;-77
2021/09/24 11:06:11;;;;;;;3.92;3.15;;;29.30;79.00;;;;;;4973562;28;20037;-76
2021/09/24 11:08:44;;;;;;;5.53;2.88;;;30.30;80.70;;;;;;4974142;28;20031;-76
2021/09/24 11:11:16;;;;;;;3.65;2.60;;;31.10;74.90;;;;;;4973590;28;20473;-75
2021/09/24 11:13:46;;;;;;;3.38;3.10;;;28.50;79.30;;;;;;4973903;28;20053;-76
2021/09/24 11:16:17;;;;;;;6.82;3.15;;;26.30;83.50;;;;;;4971533;28;20033;-75
2021/09/24 11:18:44;;;;;;;3.25;3.05;;;25.00;86.00;;;;;;4973977;28;20043;-76
2021/09/24 11:21:09;;;;;;;3.38;3.17;;;25.80;90.00;;;;;;4955936;28;20051;-76
2021/09/24 11:23:36;;;;;;;6.38;3.30;;;27.40;83.50;;;;;;4954885;28;20516;-76
2021/09/24 11:26:14;;;;;;;7.18;3.08;;;29.20;81.90;;;;;;4954418;28;20034;-77
2021/09/24 11:28:43;;;;;;;3.45;3.00;;;31.20;77.40;;;;;;4974209;28;20033;-76
2021/09/24 11:31:09;;;;;;;3.40;2.92;;;29.80;75.30;;;;;;4975884;28;20055;-76
2021/09/24 11:33:41;;;;;;;4.47;2.50;;;29.60;75.30;;;;;;4974706;28;20127;-76
2021/09/24 11:36:08;;;;;;;2.38;2.28;;;29.30;72.20;;;;;;4974980;28;20051;-76
2021/09/24 11:38:34;;;;;;;3.03;2.83;;;27.90;75.70;;;;;;4976376;28;20047;-76
2021/09/24 11:41:00;;;;;;;3.38;3.13;;;27.60;78.50;;;;;;4977250;28;20082;-75
2021/09/24 11:43:36;;;;;;;3.30;3.03;;;26.80;76.30;;;;;;4993311;28;20374;-76
2021/09/24 11:46:14;;;;;;;3.75;3.10;;;27.20;80.80;;;;;;4974747;28;20736;-76
2021/09/24 11:48:40;;;;;;;4.70;3.00;;;28.10;79.60;;;;;;4976050;28;20077;-75
2021/09/24 11:51:20;;;;;;;3.17;2.85;;;29.20;76.10;;;;;;4974906;28;20019;-75
2021/09/24 11:53:48;;;;;;;4.53;2.50;;;30.60;70.20;;;;;;4974487;28;20058;-76
2021/09/24 11:56:17;;;;;;;3.00;2.80;;;30.40;69.20;;;;;;4974703;28;20050;-75
2021/09/24 11:58:43;;;;;;;2.88;2.63;;;29.00;74.00;;;;;;4975679;28;20053;-76
2021/09/24 12:01:12;;;;;;;3.10;2.90;;;28.00;73.00;;;;;;4975581;28;20038;-77
2021/09/24 12:03:38;;;;;;;3.30;3.10;;;28.20;72.70;;;;;;4974231;28;20397;-75
2021/09/24 12:06:10;;;;;;;3.25;2.80;;;27.20;75.40;;;;;;4974815;28;20031;-75
2021/09/24 12:08:47;;;;;;;2.85;2.50;;;27.90;75.30;;;;;;4975133;28;20026;-75
2021/09/24 12:11:19;;;;;;;3.08;2.83;;;27.30;72.60;;;;;;4976059;28;20062;-75
2021/09/24 12:14:01;;;;;;;2.80;2.60;;;26.60;74.70;;;;;;4976718;28;20023;-75
2021/09/24 12:16:37;;;;;;;3.08;2.88;;;25.90;76.70;;;;;;4981610;28;20031;-75
2021/09/24 12:19:07;;;;;;;2.83;2.63;;;26.50;76.90;;;;;;4983210;28;20019;-76
2021/09/24 12:21:38;;;;;;;4.80;2.83;;;28.10;74.30;;;;;;4990583;28;20031;-75
2021/09/24 12:24:19;;;;;;;4.18;2.85;;;28.00;72.50;;;;;;4991002;28;20513;-76
2021/09/24 12:26:48;;;;;;;4.50;3.05;;;27.70;75.10;;;;;;4985971;28;20030;-76
2021/09/24 12:29:17;;;;;;;3.45;3.15;;;27.80;77.60;;;;;;4986427;28;20018;-76
2021/09/24 12:31:57;;;;;;;3.30;3.05;;;27.50;76.80;;;;;;4972401;28;20030;-76
2021/09/24 12:34:50;;;;;;;4.93;2.95;;;28.10;71.80;;;;;;4961464;28;20189;-76
2021/09/24 12:37:20;;;;;;;3.63;2.80;;;27.90;73.00;;;;;;4954542;28;20121;-75
2021/09/24 12:40:01;;;;;;;5.65;3.13;;;28.30;73.90;;;;;;4964262;28;20015;-76
2021/09/24 12:42:44;;;;;;;3.55;3.13;;;29.00;72.50;;;;;;4962007;28;20477;-77
2021/09/24 12:45:23;;;;;;;3.38;2.83;;;29.70;70.40;;;;;;4967157;28;20184;-76
2021/09/24 12:47:49;;;;;;;2.80;2.50;;;28.90;71.10;;;;;;4958830;28;20046;-74